Terminal Aerodrome Forecast
Issued by NWS

Home | Current Version | Previous Version | Text Only | Print | Product List | Glossary On
Versions: 1 2 3 4 5 6 7 8 9 10 11 12 13 14 15
000
FTUS46 KMTR 301700
TAFOAK
TAF
KOAK 301738Z 3018/3124 22005KT P6SM SCT180 BKN200
     FM302100 28009KT P6SM BKN150
     FM310400 25008KT P6SM BKN040 OVC100
     FM310600 20009KT P6SM BKN025 OVC050
     FM311400 16009KT P6SM -RA BKN035 OVC050
     FM311800 21010KT P6SM -RA FEW020 SCT035 BKN050
     FM312100 28010KT P6SM -SHRA SCT035 BKN050=

USA.gov is the U.S. government's official web portal to all federal, state and local government web resources and services.